createdAt,value
2023-12-27T00:01:32.931Z,94384.06
2023-12-27T00:06:35.976Z,94373.78
2023-12-27T00:11:37.657Z,94378.16
2023-12-27T00:16:39.307Z,94385.72
2023-12-27T00:21:42.200Z,94391.19
2023-12-27T00:26:43.781Z,94403.44
2023-12-27T00:31:45.348Z,94399.56
2023-12-27T00:36:48.228Z,94401.50
2023-12-27T00:41:49.833Z,94389.28
2023-12-27T00:46:51.681Z,94380.88
2023-12-27T00:51:54.675Z,94383.00
2023-12-27T00:56:56.333Z,94380.56
2023-12-27T01:01:57.941Z,94378.34
2023-12-27T01:07:00.888Z,94371.22
2023-12-27T01:12:02.632Z,94381.19
2023-12-27T01:17:04.533Z,94374.75
2023-12-27T01:22:07.445Z,94383.13
2023-12-27T01:27:10.065Z,94382.81
2023-12-27T01:32:11.684Z,94384.72
2023-12-27T01:37:14.589Z,94397.31
2023-12-27T01:42:16.319Z,94393.63
2023-12-27T01:47:17.939Z,94384.44
2023-12-27T01:52:21.027Z,94378.00
2023-12-27T01:57:22.763Z,94373.97
2023-12-27T02:02:24.954Z,94374.13
2023-12-27T02:07:30.881Z,94373.97
2023-12-27T02:12:33.180Z,94381.56
2023-12-27T02:17:35.349Z,94374.94
2023-12-27T02:22:39.998Z,94363.19
2023-12-27T02:27:42.994Z,94348.03
2023-12-27T02:32:45.820Z,94339.00
2023-12-27T02:37:47.712Z,94338.03
2023-12-27T02:42:50.892Z,94332.22
2023-12-27T02:47:52.663Z,94330.56
2023-12-27T02:52:54.333Z,94334.06
2023-12-27T02:57:57.473Z,94327.94
2023-12-27T03:02:59.108Z,94329.88
2023-12-27T03:08:00.917Z,94322.47
2023-12-27T03:13:04.031Z,94313.75
2023-12-27T03:18:05.777Z,94307.94
2023-12-27T03:23:07.474Z,94310.78
2023-12-27T03:28:10.402Z,94320.09
2023-12-27T03:33:12.216Z,94322.69
2023-12-27T03:38:13.957Z,94319.47
2023-12-27T03:43:16.995Z,94318.78
2023-12-27T03:48:18.768Z,94326.16
2023-12-27T03:53:20.434Z,94319.41
2023-12-27T03:58:23.380Z,94309.09
2023-12-27T04:03:25.015Z,94307.50
2023-12-27T04:08:26.730Z,94306.88
2023-12-27T04:13:29.600Z,94300.47
2023-12-27T04:18:31.385Z,94310.13
2023-12-27T04:23:33.099Z,94311.72
2023-12-27T04:28:36.092Z,94307.50
2023-12-27T04:33:37.722Z,94307.50
2023-12-27T04:38:39.332Z,94300.41
2023-12-27T04:43:42.242Z,94300.41
2023-12-27T04:48:43.943Z,94303.59
2023-12-27T04:53:45.663Z,94301.78
2023-12-27T04:58:48.626Z,94296.72
2023-12-27T05:03:50.236Z,94290.09
2023-12-27T05:08:51.934Z,94286.38
2023-12-27T05:13:54.876Z,94298.88
2023-12-27T05:18:56.632Z,94292.75
2023-12-27T05:23:58.395Z,94296.94
2023-12-27T05:29:01.342Z,94297.16
2023-12-27T05:34:03.073Z,94296.06
2023-12-27T05:39:04.939Z,94303.50
2023-12-27T05:44:07.882Z,94297.53
2023-12-27T05:49:09.554Z,94299.94
2023-12-27T05:54:11.206Z,94299.88
2023-12-27T05:59:14.164Z,94301.59
2023-12-27T06:04:15.812Z,94296.50
2023-12-27T06:09:17.463Z,94286.81
2023-12-27T06:14:21.473Z,94296.88
2023-12-27T06:19:23.198Z,94293.56
2023-12-27T06:24:25.260Z,94280.09
2023-12-27T06:29:28.190Z,94277.44
2023-12-27T06:34:32.995Z,94286.38
2023-12-27T06:39:34.743Z,94297.03
2023-12-27T06:44:37.889Z,94292.84
2023-12-27T06:49:39.698Z,94280.00
2023-12-27T06:54:41.399Z,94282.34
2023-12-27T06:59:44.431Z,94284.44
2023-12-27T07:04:46.065Z,94271.56
2023-12-27T07:09:47.817Z,94269.44
2023-12-27T07:14:50.873Z,94285.66
2023-12-27T07:19:52.561Z,94279.94
2023-12-27T07:24:54.102Z,94283.81
2023-12-27T07:29:57.241Z,94288.28
2023-12-27T07:34:58.923Z,94286.09
2023-12-27T07:40:00.677Z,94297.63
2023-12-27T07:45:05.065Z,94291.25
2023-12-27T07:50:07.715Z,94284.19
2023-12-27T07:55:09.592Z,94289.47
2023-12-27T08:00:14.042Z,94310.41
2023-12-27T08:05:15.704Z,94315.28
2023-12-27T08:10:17.421Z,94301.63
2023-12-27T08:15:20.356Z,94305.91
2023-12-27T08:20:25.055Z,94294.34
2023-12-27T08:25:27.106Z,94295.25
2023-12-27T08:30:30.110Z,94305.03
2023-12-27T08:35:31.788Z,94311.81
2023-12-27T08:40:33.459Z,94315.03
2023-12-27T08:45:36.455Z,94301.81
2023-12-27T08:50:38.022Z,94304.44
2023-12-27T08:55:39.589Z,94318.44
2023-12-27T09:00:42.656Z,94312.78
2023-12-27T09:05:44.316Z,94301.28
2023-12-27T09:10:45.935Z,94299.59
2023-12-27T09:15:49.049Z,94305.22
2023-12-27T09:20:50.622Z,94292.09
2023-12-27T09:25:52.230Z,94289.97
2023-12-27T09:30:55.315Z,94277.66
2023-12-27T09:35:57.067Z,94270.56
2023-12-27T09:40:58.720Z,94267.06
2023-12-27T09:46:04.094Z,94270.75
2023-12-27T09:51:06.097Z,94254.03
2023-12-27T09:56:08.335Z,94247.44
2023-12-27T10:01:11.711Z,94239.69
2023-12-27T10:06:32.143Z,94241.16
2023-12-27T10:11:35.142Z,94234.06
2023-12-27T10:16:38.101Z,94232.31
2023-12-27T10:21:41.573Z,94229.56
2023-12-27T10:26:43.275Z,94240.34
2023-12-27T10:31:48.232Z,94214.41
2023-12-27T10:36:51.085Z,94216.81
2023-12-27T10:41:53.331Z,94220.66
2023-12-27T10:46:57.928Z,94228.75
2023-12-27T10:52:00.932Z,94229.69
2023-12-27T10:57:04.894Z,94220.63
2023-12-27T11:02:09.325Z,94200.41
2023-12-27T11:07:12.543Z,94175.88
2023-12-27T11:12:18.571Z,94162.13
2023-12-27T11:17:25.437Z,94150.31
2023-12-27T11:22:27.114Z,94145.72
2023-12-27T11:27:31.129Z,94137.50
2023-12-27T11:32:36.369Z,94133.59
2023-12-27T11:37:40.738Z,94119.31
2023-12-27T11:42:42.363Z,94122.19
2023-12-27T11:47:45.421Z,94116.13
2023-12-27T11:52:53.324Z,94104.38
2023-12-27T11:58:01.283Z,94097.31
2023-12-27T12:03:15.161Z,94080.13
2023-12-27T12:08:26.413Z,94076.22
2023-12-27T12:13:28.073Z,94074.13
2023-12-27T12:18:33.659Z,94072.69
2023-12-27T12:23:35.513Z,94064.31
2023-12-27T12:28:37.046Z,94059.66
2023-12-27T12:33:39.984Z,94058.13
2023-12-27T12:38:41.699Z,94045.22
2023-12-27T12:43:43.350Z,94044.56
2023-12-27T12:48:46.613Z,94038.34
2023-12-27T12:53:48.456Z,94027.44
2023-12-27T12:58:50.234Z,94021.47
2023-12-27T13:03:53.122Z,94009.50
2023-12-27T13:08:54.755Z,94001.66
2023-12-27T13:13:56.289Z,93998.72
2023-12-27T13:18:59.415Z,93980.25
2023-12-27T13:24:01.120Z,93979.00
2023-12-27T13:29:02.654Z,93969.81
2023-12-27T13:34:05.643Z,93970.63
2023-12-27T13:39:08.240Z,93973.81
2023-12-27T13:44:09.899Z,93967.31
2023-12-27T13:49:12.959Z,93963.75
2023-12-27T13:54:24.324Z,93957.25
2023-12-27T13:59:30.518Z,93956.47
2023-12-27T14:04:33.574Z,93951.59
2023-12-27T14:09:35.464Z,93951.75
2023-12-27T14:14:37.055Z,93953.19
2023-12-27T14:19:40.065Z,93962.81
2023-12-27T14:24:41.677Z,93960.69
2023-12-27T14:29:43.277Z,93971.28
2023-12-27T14:34:46.216Z,93970.91
2023-12-27T14:39:47.968Z,93971.38
2023-12-27T14:44:49.680Z,93967.34
2023-12-27T14:49:52.626Z,93971.31
2023-12-27T14:54:54.251Z,93978.63
2023-12-27T14:59:55.797Z,93972.88
2023-12-27T15:04:58.799Z,93961.50
2023-12-27T15:10:00.805Z,93963.59
2023-12-27T15:15:03.984Z,93976.53
2023-12-27T15:20:09.355Z,93977.50
2023-12-27T15:25:11.378Z,93968.56
2023-12-27T15:30:13.676Z,93967.63
2023-12-27T15:35:16.749Z,93966.38
2023-12-27T15:40:18.327Z,93963.50
2023-12-27T15:45:19.873Z,93965.81
2023-12-27T15:50:22.740Z,93963.38
2023-12-27T15:55:24.248Z,93967.28
2023-12-27T16:00:25.875Z,93954.25
2023-12-27T16:05:28.955Z,93957.16
2023-12-27T16:10:30.515Z,93956.56
2023-12-27T16:15:33.947Z,93954.97
2023-12-27T16:20:40.319Z,93951.41
2023-12-27T16:25:41.956Z,93956.28
2023-12-27T16:30:43.670Z,93964.19
2023-12-27T16:35:46.498Z,93963.91
2023-12-27T16:40:48.075Z,93961.31
2023-12-27T16:45:49.807Z,93954.06
2023-12-27T16:50:52.960Z,93953.00
2023-12-27T16:55:54.639Z,93947.88
2023-12-27T17:00:56.211Z,93947.06
2023-12-27T17:06:00.112Z,93944.53
2023-12-27T17:11:01.704Z,93941.16
2023-12-27T17:16:03.467Z,93943.56
2023-12-27T17:21:06.501Z,93944.53
2023-12-27T17:26:08.056Z,93946.16
2023-12-27T17:31:09.667Z,93947.13
2023-12-27T17:36:12.671Z,93947.44
2023-12-27T17:41:15.201Z,93946.66
2023-12-27T17:46:16.950Z,93946.50
2023-12-27T17:51:19.846Z,93937.31
2023-12-27T17:56:21.451Z,93945.88
2023-12-27T18:01:22.949Z,93940.75
2023-12-27T18:06:25.999Z,93938.03
2023-12-27T18:11:27.702Z,93951.59
2023-12-27T18:16:29.218Z,93944.38
2023-12-27T18:21:32.135Z,93936.00
2023-12-27T18:26:39.445Z,93935.19
2023-12-27T18:31:44.012Z,93933.59
2023-12-27T18:36:47.110Z,93936.31
2023-12-27T18:41:48.710Z,93944.69
2023-12-27T18:46:50.317Z,93935.66
2023-12-27T18:51:53.390Z,93930.84
2023-12-27T18:56:54.945Z,93940.66
2023-12-27T19:01:56.459Z,93933.78
2023-12-27T19:06:59.445Z,93923.00
2023-12-27T19:12:01.038Z,93929.94
2023-12-27T19:17:02.537Z,93938.00
2023-12-27T19:22:05.484Z,93940.13
2023-12-27T19:27:07.146Z,93945.13
2023-12-27T19:32:08.643Z,93940.28
2023-12-27T19:37:12.589Z,93941.75
2023-12-27T19:42:14.154Z,93939.66
2023-12-27T19:47:15.699Z,93955.09
2023-12-27T19:52:18.633Z,93962.66
2023-12-27T19:57:20.193Z,93962.97
2023-12-27T20:02:21.792Z,93954.78
2023-12-27T20:07:25.683Z,93955.44
2023-12-27T20:12:27.437Z,93952.88
2023-12-27T20:17:29.014Z,93960.59
2023-12-27T20:22:31.948Z,93963.47
2023-12-27T20:27:33.586Z,93969.41
2023-12-27T20:32:35.749Z,93971.81
2023-12-27T20:37:39.727Z,93983.69
2023-12-27T20:42:41.412Z,93982.41
2023-12-27T20:47:43.102Z,93982.41
2023-12-27T20:52:46.103Z,93991.06
2023-12-27T20:57:47.932Z,93976.28
2023-12-27T21:02:49.557Z,93981.78
2023-12-27T21:07:52.376Z,93993.97
2023-12-27T21:12:53.937Z,93994.47
2023-12-27T21:17:55.571Z,93987.06
2023-12-27T21:22:58.599Z,93989.16
2023-12-27T21:28:00.333Z,93990.94
2023-12-27T21:33:02.238Z,93980.81
2023-12-27T21:38:05.582Z,93966.88
2023-12-27T21:43:07.129Z,93982.13
2023-12-27T21:48:08.886Z,93972.16
2023-12-27T21:53:14.778Z,93976.66
2023-12-27T21:58:16.357Z,93975.53
2023-12-27T22:03:17.917Z,93967.81
2023-12-27T22:08:20.988Z,93975.22
2023-12-27T22:13:22.686Z,93986.28
2023-12-27T22:18:24.383Z,93980.81
2023-12-27T22:23:28.902Z,93993.19
2023-12-27T22:28:30.492Z,93994.91
2023-12-27T22:33:32.196Z,93988.72
2023-12-27T22:38:35.810Z,93995.41
2023-12-27T22:43:37.447Z,93986.56
2023-12-27T22:48:39.146Z,93987.38
2023-12-27T22:53:42.265Z,93990.59
2023-12-27T22:58:43.912Z,93986.75
2023-12-27T23:03:45.512Z,93985.78
2023-12-27T23:08:48.519Z,93987.09
2023-12-27T23:13:50.134Z,93975.84
2023-12-27T23:18:52.002Z,93984.88
2023-12-27T23:23:54.976Z,93985.97
2023-12-27T23:28:56.556Z,93985.63
2023-12-27T23:33:58.272Z,93974.03
2023-12-27T23:39:01.406Z,93982.03
2023-12-27T23:44:03.999Z,93986.38
2023-12-27T23:49:05.697Z,93995.16
2023-12-27T23:54:08.962Z,93994.34
2023-12-27T23:59:10.599Z,93999.13
